Time;durP1;ratioP1;P1;durP2;ratioP2;P2;SDS_P1;SDS_P2;PMS_P1;PMS_P2;Temp;Humidity;BMP_temperature;BMP_pressure;BME280_temperature;BME280_humidity;BME280_pressure;Samples;Min_cycle;Max_cycle;Signal;HPM_P1;HPM_P2
2023/09/26 00:01:33;;;;;;;3.35;2.17;;;;;;;;;;10359180;28;20044;-60
2023/09/26 00:06:34;;;;;;;7.50;1.83;;;;;;;;;;10361724;28;20088;-60
2023/09/26 00:11:34;;;;;;;3.88;1.73;;;;;;;;;;10362151;28;20037;-60
2023/09/26 00:16:35;;;;;;;2.15;1.80;;;;;;;;;;10350193;28;20027;-60
2023/09/26 00:21:35;;;;;;;1.67;1.58;;;;;;;;;;10364261;28;20041;-60
2023/09/26 00:26:36;;;;;;;2.90;1.70;;;;;;;;;;10363083;28;20034;-60
2023/09/26 00:31:37;;;;;;;4.60;1.98;;;;;;;;;;10352347;28;20037;-60
2023/09/26 00:36:38;;;;;;;4.00;1.83;;;;;;;;;;10349285;28;20029;-60
2023/09/26 00:41:39;;;;;;;7.10;2.17;;;;;;;;;;10347814;28;20493;-61
2023/09/26 00:46:43;;;;;;;4.40;2.05;;;;;;;;;;10362915;28;20042;-61
2023/09/26 00:51:44;;;;;;;2.95;1.70;;;;;;;;;;10360206;28;20052;-60
2023/09/26 00:56:45;;;;;;;4.25;1.95;;;;;;;;;;10355183;28;20382;-61
2023/09/26 01:01:48;;;;;;;3.95;1.88;;;;;;;;;;10358160;28;20490;-61
2023/09/26 01:06:49;;;;;;;2.25;1.70;;;;;;;;;;10361013;28;20088;-61
2023/09/26 01:11:50;;;;;;;2.70;1.85;;;;;;;;;;10361438;28;20091;-61
2023/09/26 01:16:56;;;;;;;2.22;2.05;;;;;;;;;;10355908;28;20489;-59
2023/09/26 01:21:58;;;;;;;2.92;1.85;;;;;;;;;;10366188;28;20036;-60
2023/09/26 01:26:59;;;;;;;4.65;2.10;;;;;;;;;;10349666;28;20041;-60
2023/09/26 01:31:59;;;;;;;2.13;1.92;;;;;;;;;;10360003;28;20033;-60
2023/09/26 01:37:00;;;;;;;2.35;1.85;;;;;;;;;;10345761;28;20041;-59
2023/09/26 01:42:00;;;;;;;5.55;1.58;;;;;;;;;;10357712;28;20034;-60
2023/09/26 01:47:01;;;;;;;4.10;2.15;;;;;;;;;;10365990;28;20060;-61
2023/09/26 01:52:02;;;;;;;2.50;1.88;;;;;;;;;;10356652;28;20029;-61
2023/09/26 01:57:03;;;;;;;2.47;2.00;;;;;;;;;;10368878;28;20034;-61
2023/09/26 02:02:03;;;;;;;6.00;2.00;;;;;;;;;;10355031;28;20030;-61
2023/09/26 02:07:04;;;;;;;4.13;1.92;;;;;;;;;;10364500;28;20436;-61
2023/09/26 02:12:07;;;;;;;2.38;1.80;;;;;;;;;;10362017;28;20366;-61
2023/09/26 02:17:10;;;;;;;5.10;1.70;;;;;;;;;;10359549;28;20390;-60
2023/09/26 02:22:10;;;;;;;2.63;1.88;;;;;;;;;;10365825;28;20061;-60
2023/09/26 02:27:11;;;;;;;3.33;1.90;;;;;;;;;;10366961;28;20045;-60
2023/09/26 02:32:12;;;;;;;6.15;2.05;;;;;;;;;;10359428;28;20037;-60
2023/09/26 02:37:12;;;;;;;3.78;2.00;;;;;;;;;;10356848;28;20034;-60
2023/09/26 02:42:13;;;;;;;4.55;1.70;;;;;;;;;;10355300;28;20512;-60
2023/09/26 02:47:14;;;;;;;9.68;1.92;;;;;;;;;;10365534;28;20096;-60
2023/09/26 02:52:15;;;;;;;5.90;1.80;;;;;;;;;;10354398;28;20611;-60
2023/09/26 02:57:17;;;;;;;5.78;1.80;;;;;;;;;;10366920;28;20028;-60
2023/09/26 03:02:18;;;;;;;2.95;1.67;;;;;;;;;;10353692;28;20125;-60
2023/09/26 03:07:18;;;;;;;3.88;1.80;;;;;;;;;;10358903;28;20033;-60
2023/09/26 03:12:19;;;;;;;1.85;1.75;;;;;;;;;;10366589;28;20032;-62
2023/09/26 03:17:19;;;;;;;2.30;1.58;;;;;;;;;;10365656;28;20022;-60
2023/09/26 03:22:20;;;;;;;1.88;1.67;;;;;;;;;;10366160;28;20048;-59
2023/09/26 03:27:21;;;;;;;2.78;1.80;;;;;;;;;;10365677;28;20053;-59
2023/09/26 03:32:21;;;;;;;2.22;2.03;;;;;;;;;;10346701;28;20026;-59
2023/09/26 03:37:22;;;;;;;1.77;1.65;;;;;;;;;;10353858;28;20504;-60
2023/09/26 03:42:22;;;;;;;2.92;2.00;;;;;;;;;;10343921;28;20040;-60
2023/09/26 03:47:24;;;;;;;4.00;1.80;;;;;;;;;;10362552;28;20073;-61
2023/09/26 03:52:25;;;;;;;2.38;1.88;;;;;;;;;;10352404;28;20030;-58
2023/09/26 03:57:25;;;;;;;3.92;1.85;;;;;;;;;;10352713;28;20030;-59
2023/09/26 04:02:26;;;;;;;2.92;1.90;;;;;;;;;;10352930;28;20034;-58
2023/09/26 04:07:28;;;;;;;2.17;1.67;;;;;;;;;;10359192;28;20062;-59
2023/09/26 04:12:28;;;;;;;5.53;1.90;;;;;;;;;;10364475;28;20037;-58
2023/09/26 04:17:29;;;;;;;6.05;2.20;;;;;;;;;;10363606;28;20034;-59
2023/09/26 04:22:30;;;;;;;3.42;1.85;;;;;;;;;;10361703;28;20041;-59
2023/09/26 04:27:30;;;;;;;3.20;2.00;;;;;;;;;;10363169;28;20365;-59
2023/09/26 04:32:31;;;;;;;2.75;1.70;;;;;;;;;;10333162;28;20498;-59
2023/09/26 04:37:35;;;;;;;2.33;1.70;;;;;;;;;;10352012;28;20475;-59
2023/09/26 04:42:39;;;;;;;3.95;1.98;;;;;;;;;;10346415;28;20049;-59
2023/09/26 04:47:41;;;;;;;2.95;1.98;;;;;;;;;;10353359;28;20406;-59
2023/09/26 04:52:41;;;;;;;2.78;1.80;;;;;;;;;;10368869;28;20026;-60
2023/09/26 04:57:42;;;;;;;4.90;1.80;;;;;;;;;;10348294;28;20441;-61
2023/09/26 05:02:51;;;;;;;5.43;2.08;;;;;;;;;;10353393;28;20045;-60
2023/09/26 05:07:51;;;;;;;5.57;1.70;;;;;;;;;;10349156;28;20502;-61
2023/09/26 05:12:52;;;;;;;4.15;1.90;;;;;;;;;;10344774;28;20094;-61
2023/09/26 05:17:53;;;;;;;12.50;1.98;;;;;;;;;;10347401;28;20080;-61
2023/09/26 05:22:53;;;;;;;2.67;1.95;;;;;;;;;;10347487;28;20034;-61
2023/09/26 05:27:54;;;;;;;3.17;1.90;;;;;;;;;;10347901;28;20033;-61
2023/09/26 05:32:54;;;;;;;5.35;1.90;;;;;;;;;;10344252;28;20034;-61
2023/09/26 05:37:55;;;;;;;3.17;1.88;;;;;;;;;;10333868;28;20034;-62
2023/09/26 05:42:56;;;;;;;9.18;1.95;;;;;;;;;;10361322;28;20030;-61
2023/09/26 05:47:56;;;;;;;6.55;1.60;;;;;;;;;;10349160;28;20048;-60
2023/09/26 05:52:57;;;;;;;4.63;1.95;;;;;;;;;;10357733;28;20026;-60
2023/09/26 05:57:58;;;;;;;4.22;2.15;;;;;;;;;;10351678;28;20023;-60
2023/09/26 06:02:58;;;;;;;11.25;2.33;;;;;;;;;;10331139;28;20023;-60
2023/09/26 06:07:59;;;;;;;9.30;2.28;;;;;;;;;;10344821;28;20022;-59
2023/09/26 06:12:59;;;;;;;5.07;1.80;;;;;;;;;;10352871;28;20022;-59
2023/09/26 06:18:00;;;;;;;8.27;2.38;;;;;;;;;;10357593;28;20041;-59
2023/09/26 06:23:01;;;;;;;5.57;1.98;;;;;;;;;;10367501;28;20033;-59
2023/09/26 06:28:01;;;;;;;11.15;2.13;;;;;;;;;;10355898;28;20481;-59
2023/09/26 06:33:02;;;;;;;7.75;2.13;;;;;;;;;;10357531;28;20560;-60
2023/09/26 06:38:02;;;;;;;7.68;2.38;;;;;;;;;;10358994;28;20442;-61
2023/09/26 06:43:03;;;;;;;6.00;2.15;;;;;;;;;;10343660;28;20232;-60
2023/09/26 06:48:06;;;;;;;6.97;2.38;;;;;;;;;;10341096;28;20042;-59
2023/09/26 06:53:07;;;;;;;6.80;2.13;;;;;;;;;;10336150;28;20077;-59
2023/09/26 06:58:09;;;;;;;8.10;2.38;;;;;;;;;;10343766;28;20018;-61
2023/09/26 07:03:09;;;;;;;4.07;2.00;;;;;;;;;;10330773;28;20057;-59
2023/09/26 07:08:12;;;;;;;2.88;1.80;;;;;;;;;;10359201;28;20377;-59
2023/09/26 07:13:13;;;;;;;7.57;2.60;;;;;;;;;;10337157;28;20026;-60
2023/09/26 07:18:14;;;;;;;2.33;1.80;;;;;;;;;;10358295;28;20084;-59
2023/09/26 07:23:14;;;;;;;6.82;1.95;;;;;;;;;;10338919;28;20038;-59
2023/09/26 07:28:15;;;;;;;6.47;1.90;;;;;;;;;;10354388;28;20030;-60
2023/09/26 07:33:15;;;;;;;3.50;1.88;;;;;;;;;;10329667;28;20022;-58
2023/09/26 07:38:16;;;;;;;6.78;2.05;;;;;;;;;;10341990;28;20029;-59
2023/09/26 07:43:16;;;;;;;5.18;2.20;;;;;;;;;;10363419;28;20034;-59
2023/09/26 07:48:17;;;;;;;2.67;1.60;;;;;;;;;;10333351;28;20375;-59
2023/09/26 07:53:18;;;;;;;5.05;1.90;;;;;;;;;;10349273;28;20034;-59
2023/09/26 07:58:18;;;;;;;2.72;1.88;;;;;;;;;;10339837;28;20022;-59
2023/09/26 08:03:19;;;;;;;3.75;1.75;;;;;;;;;;10332461;28;20033;-59
2023/09/26 08:08:20;;;;;;;2.13;1.70;;;;;;;;;;10334304;28;20571;-59
2023/09/26 08:13:20;;;;;;;7.72;2.45;;;;;;;;;;10358607;28;20033;-59
2023/09/26 08:18:22;;;;;;;3.30;1.77;;;;;;;;;;10344706;28;20022;-59
2023/09/26 08:23:23;;;;;;;4.15;1.95;;;;;;;;;;10351177;28;20036;-59
2023/09/26 08:28:25;;;;;;;1.83;1.63;;;;;;;;;;10359164;28;20041;-59
2023/09/26 08:33:29;;;;;;;5.05;2.00;;;;;;;;;;10327400;28;20030;-59
2023/09/26 08:38:30;;;;;;;3.50;2.08;;;;;;;;;;10340524;28;20386;-59
2023/09/26 08:43:32;;;;;;;10.82;2.03;;;;;;;;;;10352119;28;20026;-59
2023/09/26 08:48:34;;;;;;;6.70;2.03;;;;;;;;;;10361333;28;20192;-59
2023/09/26 08:53:34;;;;;;;4.40;2.00;;;;;;;;;;10352329;28;20133;-59
2023/09/26 08:58:35;;;;;;;3.15;2.05;;;;;;;;;;10340517;28;20029;-58
2023/09/26 09:03:35;;;;;;;5.85;2.08;;;;;;;;;;10347819;28;20084;-59
2023/09/26 09:08:36;;;;;;;5.90;1.92;;;;;;;;;;10337567;28;20018;-59
2023/09/26 09:13:38;;;;;;;7.03;2.00;;;;;;;;;;10363060;28;20248;-60
2023/09/26 09:18:50;;;;;;;5.72;2.20;;;;;;;;;;10351781;28;20022;-59
2023/09/26 09:23:52;;;;;;;3.83;1.90;;;;;;;;;;10354358;28;20552;-58
2023/09/26 09:28:55;;;;;;;5.75;2.50;;;;;;;;;;10326485;28;20068;-59
2023/09/26 09:33:57;;;;;;;4.28;2.45;;;;;;;;;;10328605;28;20069;-61
2023/09/26 09:38:58;;;;;;;2.67;1.88;;;;;;;;;;10366055;28;20022;-59
2023/09/26 09:43:58;;;;;;;4.40;2.58;;;;;;;;;;10369124;28;20528;-59
2023/09/26 09:49:03;;;;;;;5.40;2.15;;;;;;;;;;10367963;28;20042;-60
2023/09/26 09:54:05;;;;;;;8.50;2.67;;;;;;;;;;10344224;28;20433;-60
2023/09/26 09:59:12;;;;;;;2.88;2.13;;;;;;;;;;10356249;28;20085;-60
2023/09/26 10:04:15;;;;;;;5.00;2.60;;;;;;;;;;10333100;28;20478;-59
2023/09/26 10:09:20;;;;;;;6.50;2.75;;;;;;;;;;10368896;28;20040;-58
2023/09/26 10:14:23;;;;;;;3.15;2.60;;;;;;;;;;10343913;28;20419;-60
2023/09/26 10:19:28;;;;;;;4.97;2.58;;;;;;;;;;10344730;28;21941;-60
2023/09/26 10:24:29;;;;;;;2.92;2.40;;;;;;;;;;10343564;28;20022;-59
2023/09/26 10:29:31;;;;;;;7.75;3.10;;;;;;;;;;10344729;28;20097;-59
2023/09/26 10:34:38;;;;;;;3.95;2.70;;;;;;;;;;10359448;28;20034;-58
2023/09/26 10:39:40;;;;;;;4.18;2.63;;;;;;;;;;10347671;28;20129;-59
2023/09/26 10:44:43;;;;;;;5.80;3.00;;;;;;;;;;10356694;28;20030;-59
2023/09/26 10:49:44;;;;;;;4.47;2.72;;;;;;;;;;10351068;28;20049;-59
2023/09/26 10:54:44;;;;;;;4.15;2.88;;;;;;;;;;10336791;28;20027;-59
2023/09/26 10:59:45;;;;;;;6.30;2.70;;;;;;;;;;10341853;28;20034;-59
2023/09/26 11:04:46;;;;;;;3.55;2.58;;;;;;;;;;10343645;28;20249;-58
2023/09/26 11:09:46;;;;;;;7.22;2.90;;;;;;;;;;10347932;28;20030;-59
2023/09/26 11:14:47;;;;;;;3.33;2.80;;;;;;;;;;10351093;28;20027;-58
2023/09/26 11:19:47;;;;;;;9.25;3.08;;;;;;;;;;10354058;28;20030;-59
2023/09/26 11:24:48;;;;;;;5.40;2.95;;;;;;;;;;10354431;28;20038;-59
2023/09/26 11:29:49;;;;;;;5.43;3.03;;;;;;;;;;10341352;28;20041;-59
2023/09/26 11:34:49;;;;;;;6.65;2.67;;;;;;;;;;10344554;28;20145;-60
2023/09/26 11:39:52;;;;;;;4.18;2.80;;;;;;;;;;10343752;28;20026;-59
2023/09/26 11:44:56;;;;;;;6.53;3.05;;;;;;;;;;10335451;28;20041;-59
2023/09/26 11:49:57;;;;;;;7.18;3.25;;;;;;;;;;10352583;28;20065;-60
2023/09/26 11:54:57;;;;;;;7.05;2.85;;;;;;;;;;10342761;28;20097;-61
2023/09/26 11:59:58;;;;;;;9.25;3.20;;;;;;;;;;10344777;28;20042;-58
2023/09/26 12:04:58;;;;;;;8.05;2.92;;;;;;;;;;10343036;28;20077;-60
2023/09/26 12:09:59;;;;;;;4.82;3.00;;;;;;;;;;10338709;28;20018;-60
2023/09/26 12:15:20;;;;;;;5.68;2.97;;;;;;;;;;10343258;28;20489;-59
2023/09/26 12:20:24;;;;;;;4.18;2.97;;;;;;;;;;10350441;28;20542;-59
2023/09/26 12:25:27;;;;;;;5.80;3.30;;;;;;;;;;10338311;28;20061;-60
2023/09/26 12:30:28;;;;;;;5.45;3.08;;;;;;;;;;10342790;28;20022;-59
2023/09/26 12:35:28;;;;;;;9.07;3.63;;;;;;;;;;10339868;28;20135;-59
2023/09/26 12:40:29;;;;;;;8.60;3.13;;;;;;;;;;10353615;28;20385;-60
2023/09/26 12:45:30;;;;;;;7.30;3.20;;;;;;;;;;10340837;28;20109;-60
2023/09/26 12:50:30;;;;;;;9.10;3.08;;;;;;;;;;10352584;28;20490;-59
2023/09/26 12:55:31;;;;;;;8.68;3.45;;;;;;;;;;10339626;28;20030;-60
2023/09/26 13:00:34;;;;;;;7.35;3.30;;;;;;;;;;10339450;28;20487;-60
2023/09/26 13:05:35;;;;;;;6.15;3.45;;;;;;;;;;10346577;28;20029;-59
2023/09/26 13:10:36;;;;;;;7.13;3.40;;;;;;;;;;10333428;28;20038;-59
2023/09/26 13:15:37;;;;;;;3.95;2.92;;;;;;;;;;10345016;28;20422;-60
2023/09/26 13:20:38;;;;;;;9.27;3.33;;;;;;;;;;10354838;28;20050;-59
2023/09/26 13:25:38;;;;;;;10.55;3.38;;;;;;;;;;10343988;28;20106;-61
2023/09/26 13:30:40;;;;;;;10.82;3.63;;;;;;;;;;10352729;28;20053;-60
2023/09/26 13:35:42;;;;;;;9.13;3.15;;;;;;;;;;10344834;28;20121;-59
2023/09/26 13:40:44;;;;;;;6.30;3.22;;;;;;;;;;10335147;28;20026;-60
2023/09/26 13:45:45;;;;;;;8.95;3.60;;;;;;;;;;10354708;28;20393;-60
2023/09/26 13:50:46;;;;;;;8.20;3.58;;;;;;;;;;10366125;28;20050;-60
2023/09/26 13:55:46;;;;;;;8.10;3.78;;;;;;;;;;10356638;28;20497;-59
2023/09/26 14:00:47;;;;;;;11.05;3.78;;;;;;;;;;10348931;28;20041;-60
2023/09/26 14:05:49;;;;;;;7.72;3.80;;;;;;;;;;10340562;28;20026;-61
2023/09/26 14:10:50;;;;;;;7.82;3.75;;;;;;;;;;10343142;28;20367;-59
2023/09/26 14:15:51;;;;;;;7.28;3.67;;;;;;;;;;10341761;28;20026;-60
2023/09/26 14:20:52;;;;;;;8.55;3.85;;;;;;;;;;10357304;28;20044;-60
2023/09/26 14:25:56;;;;;;;7.28;3.80;;;;;;;;;;10348950;28;20501;-60
2023/09/26 14:30:56;;;;;;;9.75;3.60;;;;;;;;;;10346604;28;20029;-59
2023/09/26 14:35:57;;;;;;;11.73;4.38;;;;;;;;;;10342239;28;20473;-60
2023/09/26 14:40:58;;;;;;;4.75;3.33;;;;;;;;;;10350420;28;20064;-59
2023/09/26 14:45:59;;;;;;;8.18;3.92;;;;;;;;;;10334577;28;20046;-59
2023/09/26 14:50:59;;;;;;;11.25;3.47;;;;;;;;;;10330412;28;20414;-61
2023/09/26 14:56:00;;;;;;;8.90;3.75;;;;;;;;;;10333412;28;20410;-59
2023/09/26 15:01:00;;;;;;;7.30;3.90;;;;;;;;;;10332673;28;20042;-59
2023/09/26 15:06:01;;;;;;;9.18;3.55;;;;;;;;;;10343287;28;20026;-60
2023/09/26 15:11:02;;;;;;;7.38;3.58;;;;;;;;;;10362243;28;20026;-59
2023/09/26 15:16:05;;;;;;;7.07;3.40;;;;;;;;;;10351350;28;20083;-60
2023/09/26 15:21:05;;;;;;;7.18;3.22;;;;;;;;;;10340789;28;20268;-59
2023/09/26 15:26:06;;;;;;;7.20;3.78;;;;;;;;;;10345625;28;20311;-59
2023/09/26 15:31:07;;;;;;;6.90;3.17;;;;;;;;;;10350401;28;20080;-59
2023/09/26 15:36:13;;;;;;;8.85;3.45;;;;;;;;;;10349631;28;20026;-59
2023/09/26 15:41:20;;;;;;;7.25;3.72;;;;;;;;;;10365123;28;20105;-58
2023/09/26 15:46:23;;;;;;;4.68;3.28;;;;;;;;;;10355797;28;20112;-59
2023/09/26 15:51:23;;;;;;;6.35;3.58;;;;;;;;;;10364850;28;20046;-59
2023/09/26 15:56:24;;;;;;;10.07;3.40;;;;;;;;;;10363987;28;20037;-59
2023/09/26 16:01:45;;;;;;;7.80;3.50;;;;;;;;;;10352963;28;20033;-59
2023/09/26 16:06:45;;;;;;;21.73;3.90;;;;;;;;;;10291745;28;20064;-59
2023/09/26 16:11:47;;;;;;;6.00;3.33;;;;;;;;;;10289855;28;20033;-60
2023/09/26 16:16:47;;;;;;;8.63;3.72;;;;;;;;;;10301416;28;20045;-60
2023/09/26 16:21:48;;;;;;;7.93;3.22;;;;;;;;;;10306714;28;20575;-59
2023/09/26 16:26:48;;;;;;;9.20;3.47;;;;;;;;;;10318650;28;20561;-59
2023/09/26 16:31:49;;;;;;;9.52;3.30;;;;;;;;;;10318448;28;20030;-60
2023/09/26 16:36:50;;;;;;;9.35;3.30;;;;;;;;;;10293967;28;20039;-60
2023/09/26 16:41:50;;;;;;;4.30;3.40;;;;;;;;;;10319941;28;20048;-60
2023/09/26 16:46:51;;;;;;;5.93;3.00;;;;;;;;;;10364422;28;20038;-60
2023/09/26 16:51:51;;;;;;;4.35;3.05;;;;;;;;;;10371780;28;20022;-60
2023/09/26 16:56:52;;;;;;;6.30;3.70;;;;;;;;;;10358804;28;20080;-60
2023/09/26 17:01:52;;;;;;;11.25;3.33;;;;;;;;;;10370441;28;20030;-62
2023/09/26 17:06:56;;;;;;;7.45;3.10;;;;;;;;;;10370122;28;20061;-60
2023/09/26 17:11:56;;;;;;;6.50;3.08;;;;;;;;;;10371213;28;20030;-60
2023/09/26 17:17:00;;;;;;;7.25;3.03;;;;;;;;;;10359753;28;20379;-59
2023/09/26 17:22:01;;;;;;;9.80;3.47;;;;;;;;;;10358082;28;20022;-59
2023/09/26 17:27:01;;;;;;;5.65;3.28;;;;;;;;;;10369430;28;20022;-59
2023/09/26 17:32:02;;;;;;;6.72;3.20;;;;;;;;;;10368633;28;20460;-59
2023/09/26 17:37:03;;;;;;;5.60;3.60;;;;;;;;;;10353453;28;20030;-60
2023/09/26 17:42:03;;;;;;;5.03;3.05;;;;;;;;;;10359114;28;20033;-60
2023/09/26 17:47:04;;;;;;;7.63;3.58;;;;;;;;;;10354516;28;20045;-60
2023/09/26 17:52:04;;;;;;;3.78;2.88;;;;;;;;;;10362631;28;20030;-59
2023/09/26 17:57:05;;;;;;;7.30;3.15;;;;;;;;;;10369180;28;20034;-60
2023/09/26 18:02:07;;;;;;;6.30;3.20;;;;;;;;;;10368724;28;20041;-60
2023/09/26 18:07:08;;;;;;;6.68;3.20;;;;;;;;;;10356048;28;20033;-60
2023/09/26 18:12:08;;;;;;;5.07;3.55;;;;;;;;;;10342735;28;20042;-60
2023/09/26 18:17:09;;;;;;;5.70;3.22;;;;;;;;;;10342911;28;20269;-60
2023/09/26 18:22:10;;;;;;;8.82;3.90;;;;;;;;;;10332143;28;20038;-60
2023/09/26 18:27:10;;;;;;;8.13;3.45;;;;;;;;;;10332266;28;20497;-60
2023/09/26 18:32:11;;;;;;;5.38;3.30;;;;;;;;;;10333135;28;20359;-60
2023/09/26 18:37:11;;;;;;;7.68;3.47;;;;;;;;;;10334735;28;20469;-59
2023/09/26 18:42:12;;;;;;;10.57;4.20;;;;;;;;;;10352989;28;20030;-59
2023/09/26 18:47:13;;;;;;;10.48;3.65;;;;;;;;;;10365791;28;20054;-59
2023/09/26 18:52:14;;;;;;;8.95;3.72;;;;;;;;;;10368179;28;20367;-60
2023/09/26 18:57:14;;;;;;;6.88;3.53;;;;;;;;;;10355462;28;20034;-60
2023/09/26 19:02:15;;;;;;;8.88;3.78;;;;;;;;;;10344361;28;20470;-60
2023/09/26 19:07:16;;;;;;;9.45;4.13;;;;;;;;;;10347796;28;20604;-60
2023/09/26 19:12:16;;;;;;;7.50;3.58;;;;;;;;;;10348483;28;20033;-59
2023/09/26 19:17:17;;;;;;;6.28;3.85;;;;;;;;;;10338550;28;20469;-59
2023/09/26 19:22:19;;;;;;;5.45;3.40;;;;;;;;;;10337428;28;20458;-60
2023/09/26 19:27:19;;;;;;;12.85;3.92;;;;;;;;;;10338573;28;20030;-60
2023/09/26 19:32:20;;;;;;;14.48;4.15;;;;;;;;;;10339347;28;20026;-60
2023/09/26 19:37:21;;;;;;;9.00;3.67;;;;;;;;;;10340579;28;20061;-60
2023/09/26 19:42:21;;;;;;;6.03;3.80;;;;;;;;;;10341728;28;20030;-60
2023/09/26 19:47:24;;;;;;;5.45;3.67;;;;;;;;;;10341897;28;20055;-60
2023/09/26 19:52:24;;;;;;;10.75;4.13;;;;;;;;;;10340330;28;20357;-60
2023/09/26 19:57:25;;;;;;;11.02;4.63;;;;;;;;;;10342020;28;20022;-60
2023/09/26 20:02:26;;;;;;;7.43;3.92;;;;;;;;;;10341641;28;20025;-60
2023/09/26 20:07:26;;;;;;;9.50;4.07;;;;;;;;;;10332384;28;20053;-60
2023/09/26 20:12:27;;;;;;;9.02;4.30;;;;;;;;;;10328092;28;20033;-60
2023/09/26 20:17:27;;;;;;;12.30;4.47;;;;;;;;;;10338443;28;20030;-60
2023/09/26 20:22:28;;;;;;;7.40;3.67;;;;;;;;;;10339942;28;20381;-60
2023/09/26 20:27:29;;;;;;;9.13;3.97;;;;;;;;;;10360342;28;20022;-60
2023/09/26 20:32:34;;;;;;;9.65;4.40;;;;;;;;;;10346375;28;20172;-60
2023/09/26 20:37:35;;;;;;;6.68;3.67;;;;;;;;;;10346049;28;20037;-60
2023/09/26 20:42:36;;;;;;;5.70;3.50;;;;;;;;;;10357671;28;20057;-60
2023/09/26 20:47:37;;;;;;;9.35;4.32;;;;;;;;;;10345992;28;20441;-60
2023/09/26 20:52:37;;;;;;;9.80;4.18;;;;;;;;;;10359703;28;20188;-60
2023/09/26 20:57:38;;;;;;;9.40;3.88;;;;;;;;;;10363050;28;20026;-60
2023/09/26 21:02:39;;;;;;;6.45;3.90;;;;;;;;;;10353190;28;20439;-60
2023/09/26 21:07:39;;;;;;;16.45;3.67;;;;;;;;;;10343969;28;20034;-59
2023/09/26 21:12:40;;;;;;;12.27;3.42;;;;;;;;;;10361193;28;20036;-60
2023/09/26 21:17:40;;;;;;;10.00;3.47;;;;;;;;;;10339619;28;20037;-60
2023/09/26 21:22:41;;;;;;;10.82;3.60;;;;;;;;;;10356111;28;20037;-60
2023/09/26 21:27:42;;;;;;;9.80;3.33;;;;;;;;;;10372351;28;20505;-60
2023/09/26 21:32:42;;;;;;;12.48;3.60;;;;;;;;;;10356537;28;20254;-60
2023/09/26 21:37:43;;;;;;;8.20;3.85;;;;;;;;;;10362921;28;20109;-60
2023/09/26 21:42:43;;;;;;;13.10;3.97;;;;;;;;;;10352691;28;20473;-60
2023/09/26 21:47:44;;;;;;;5.15;3.33;;;;;;;;;;10359823;28;20049;-60
2023/09/26 21:52:45;;;;;;;7.22;3.70;;;;;;;;;;10353324;28;20034;-60
2023/09/26 21:57:47;;;;;;;6.05;3.47;;;;;;;;;;10359093;28;20536;-60
2023/09/26 22:02:52;;;;;;;9.63;4.45;;;;;;;;;;10361216;28;20405;-62
2023/09/26 22:07:56;;;;;;;18.05;4.32;;;;;;;;;;10350548;28;20042;-61
2023/09/26 22:12:57;;;;;;;7.07;3.88;;;;;;;;;;10341022;28;20040;-61
2023/09/26 22:17:59;;;;;;;11.00;4.00;;;;;;;;;;10358225;28;20033;-61
2023/09/26 22:22:59;;;;;;;14.45;4.80;;;;;;;;;;10360999;28;20030;-62
2023/09/26 22:28:00;;;;;;;6.57;4.05;;;;;;;;;;10357219;28;20049;-64
2023/09/26 22:33:01;;;;;;;17.85;3.97;;;;;;;;;;10381443;28;20029;-62
2023/09/26 22:38:02;;;;;;;6.72;3.45;;;;;;;;;;10359455;28;20109;-62
2023/09/26 22:43:03;;;;;;;6.30;3.85;;;;;;;;;;10367053;28;20030;-62
2023/09/26 22:48:04;;;;;;;11.82;3.67;;;;;;;;;;10364008;28;20042;-61
2023/09/26 22:53:05;;;;;;;9.65;3.42;;;;;;;;;;10365237;28;20037;-62
2023/09/26 22:58:05;;;;;;;16.27;3.85;;;;;;;;;;10365430;28;20030;-62
2023/09/26 23:03:06;;;;;;;8.10;4.30;;;;;;;;;;10365995;28;20033;-62
2023/09/26 23:08:07;;;;;;;11.55;4.13;;;;;;;;;;10350599;28;20095;-62
2023/09/26 23:13:08;;;;;;;11.35;4.07;;;;;;;;;;10358472;28;20025;-62
2023/09/26 23:18:09;;;;;;;13.02;3.40;;;;;;;;;;10362979;28;20028;-60
2023/09/26 23:23:09;;;;;;;13.25;3.90;;;;;;;;;;10356353;28;20034;-60
2023/09/26 23:28:11;;;;;;;6.80;3.53;;;;;;;;;;10364512;28;20032;-61
2023/09/26 23:33:12;;;;;;;8.38;4.07;;;;;;;;;;10355359;28;20034;-61
2023/09/26 23:38:15;;;;;;;7.68;3.63;;;;;;;;;;10362829;28;20022;-62
2023/09/26 23:43:16;;;;;;;7.28;4.18;;;;;;;;;;10352405;28;20030;-61
2023/09/26 23:48:17;;;;;;;4.45;3.35;;;;;;;;;;10363128;28;20509;-60
2023/09/26 23:53:17;;;;;;;7.75;3.70;;;;;;;;;;10363719;28;20030;-61
2023/09/26 23:58:20;;;;;;;6.32;3.15;;;;;;;;;;10356834;28;20422;-61
